CA-0200 weather

Manic 5 Heliport
MRC Manicouagan, Quebec, Canada

Public forecast

Using degrees Celsius for public forecast. Weather courtesy of forecast.io.

METAR (pilot weather report)

Closest report is Baie Comeau Airport, 94.1 nm (174.3 km) SSE. Retrieved 2019/05/23 02:00 UTC (10 minutes ago):

CYBC 230200Z AUTO 23003KT 9SM CLR 06/04 A3020 RMK SLP228

TAF (pilot weather forecast)

Closest forecast is Baie Comeau Airport, 94.1 nm (174.3 km) SSE. Retrieved 2019/05/23 02:00 UTC (10 minutes ago):

TAF CYBC 230138Z 2302/2314 VRB03KT P6SM BKN060 FM230500 VRB03KT P6SM BKN200 RMK FCST BASED ON AUTO OBS. NXT FCST BY 230800Z